PORT of CALLAO

Country: Peru Country: Peru (PE)
Latitude / Longitude: -12.031435° / -77.16856° Show on Map Show on Map
Local Time:  UTC-5
UN/LOCODE: PECLL
Vessels in Port: 37
Expected Arrivals: 29

Recent Arrivals & Departures


Vessel Name
Arrival (UTC)
Arrival (LT)
Departure (UTC)
Departure (LT)
Vessel Type: Tugs, Pilots etc  ANDES 2014-10-22 14:53:00 2014-10-22 09:53:00
Vessel Type: Tankers  GIANNIS 2014-10-22 10:34:00 2014-10-22 05:34:00 2014-10-22 14:49:00 2014-10-22 09:49:00
Vessel Type: Cargo Vessels  HANSA COBURG 2014-10-22 01:28:00 2014-10-21 20:28:00 2014-10-22 14:06:00 2014-10-22 09:06:00
Vessel Type: Passenger Vessels  ZAANDAM 2014-10-22 13:18:00 2014-10-22 08:18:00
Vessel Type: Tankers  MAR PACIFICO 2014-10-21 19:43:00 2014-10-21 14:43:00 2014-10-22 12:43:00 2014-10-22 07:43:00
Vessel Type: Cargo Vessels  DRACO FAITH 2014-10-19 17:50:00 2014-10-19 12:50:00 2014-10-22 12:43:00 2014-10-22 07:43:00
Vessel Type: Tankers  OPAL EXPRESS 2014-10-22 11:57:00 2014-10-22 06:57:00
Vessel Type: Cargo Vessels  ELQUI 2014-10-22 07:56:00 2014-10-22 02:56:00
Vessel Type: Cargo Vessels  STRAITS VOYAGER 2014-10-21 17:01:00 2014-10-21 12:01:00 2014-10-22 06:15:00 2014-10-22 01:15:00
Vessel Type: Tankers  PARACAS 2014-10-22 05:49:00 2014-10-22 00:49:00 2014-10-22 06:06:00 2014-10-22 01:06:00

Expected Arrivals


Vessel Name
Scheduled Arrival (UTC)
Scheduled Arrival (LT)
Estimated Arrival (UTC)
Estimated Arrival (LT)
Vessel Type: Tankers  RP ZUG 2014-10-21 20:51:00 2014-10-21 15:51:00
Vessel Type: Cargo Vessels  RIO ADOUR 2014-10-22 02:00:00 2014-10-21 21:00:00
Vessel Type: Cargo Vessels  WAN HAI 517 2014-10-22 16:00:00 2014-10-22 11:00:00 2014-10-22 20:13:00 2014-10-22 15:13:00
Vessel Type: Cargo Vessels  AMBER 2014-10-22 17:00:00 2014-10-22 12:00:00 2014-10-22 17:28:00 2014-10-22 12:28:00
Vessel Type: Cargo Vessels  CCNI VALPARAISO 2014-10-23 01:00:00 2014-10-22 20:00:00 2014-10-23 03:46:00 2014-10-22 22:46:00
Vessel Type: Tankers  CHIRA 2014-10-23 04:30:00 2014-10-22 23:30:00 2014-10-23 07:01:00 2014-10-23 02:01:00
Vessel Type: Cargo Vessels  MORNING COURIER 2014-10-23 12:30:00 2014-10-23 07:30:00 2014-10-23 20:03:00 2014-10-23 15:03:00
Vessel Type: Cargo Vessels  CSAV RECIFE 2014-10-23 14:00:00 2014-10-23 09:00:00 2014-11-25 15:00:00 2014-11-25 10:00:00
Vessel Type: Cargo Vessels  NYK LIBRA 2014-10-23 14:00:00 2014-10-23 09:00:00 2014-10-23 21:55:00 2014-10-23 16:55:00
Vessel Type: Cargo Vessels  CNP PAITA 2014-10-23 18:00:00 2014-10-23 13:00:00 2014-10-23 17:28:00 2014-10-23 12:28:00

Wind Forecast


    
Time (UTC)
Speed
Direction
Temperature
2014-10-22 15:00:00 10 knots 207° 18°C
2014-10-22 18:00:00 10 knots 210° 19°C
2014-10-22 21:00:00 11 knots 196° 19°C
2014-10-23 00:00:00 10 knots 181° 18°C
2014-10-23 03:00:00 12 knots 174° 17°C
2014-10-23 06:00:00 10 knots 173° 17°C
2014-10-23 09:00:00 10 knots 178° 17°C
2014-10-23 12:00:00 10 knots 189° 17°C
2014-10-23 15:00:00 10 knots 204° 18°C
2014-10-23 18:00:00 10 knots 210° 19°C
2014-10-23 21:00:00 12 knots 195° 19°C
2014-10-24 00:00:00 11 knots 171° 18°C
2014-10-24 03:00:00 11 knots 173° 18°C
2014-10-24 06:00:00 9 knots 179° 17°C
2014-10-24 09:00:00 8 knots 192° 17°C
2014-10-24 12:00:00 6 knots 210° 17°C
2014-10-24 15:00:00 7 knots 223° 18°C